Time,TemperatureF,DewpointF,PressureIn,WindDirection,WindDirectionDegrees,WindSpeedMPH,WindSpeedGustMPH,Humidity,HourlyPrecipIn,Conditions,Clouds,dailyrainin,SoftwareType,DateUTC
2013-06-17 00:02:00,77.0,70.0,30.02,SW,215,1.0,7.0,80,0.00,,,0.00,,2013-06-17 05:02:00,
2013-06-17 00:12:00,77.0,70.0,30.02,SW,215,1.0,7.0,80,0.00,,,0.00,,2013-06-17 05:12:00,
2013-06-17 00:22:00,72.0,65.0,30.04,WNW,295,7.0,15.0,79,0.00,,,0.00,,2013-06-17 05:22:00,
2013-06-17 00:33:00,69.0,65.0,30.01,NE,49,5.0,15.0,88,0.00,,,0.00,,2013-06-17 05:33:00,
2013-06-17 00:44:00,69.0,65.0,30.01,NE,49,5.0,15.0,88,0.00,,,0.00,,2013-06-17 05:44:00,
2013-06-17 00:53:00,69.0,65.0,30.01,NE,49,5.0,15.0,88,0.00,,,0.00,,2013-06-17 05:53:00,
2013-06-17 01:02:00,69.0,65.0,30.01,NE,49,5.0,15.0,88,0.00,,,0.00,,2013-06-17 06:02:00,
2013-06-17 01:12:00,69.0,65.0,30.01,NE,49,5.0,15.0,88,0.00,,,0.00,,2013-06-17 06:12:00,
2013-06-17 01:31:00,69.0,68.0,30.03,WNW,284,8.0,15.0,95,0.34,,,0.41,,2013-06-17 06:31:00,
2013-06-17 01:33:00,69.0,68.0,30.02,NW,308,5.0,15.0,97,0.34,,,0.34,,2013-06-17 06:33:00,
2013-06-17 01:43:00,69.0,68.0,30.02,NW,308,5.0,15.0,97,0.34,,,0.34,,2013-06-17 06:43:00,
2013-06-17 01:53:00,69.0,68.0,30.03,WNW,284,8.0,15.0,95,0.34,,,0.41,,2013-06-17 06:53:00,
2013-06-17 02:02:00,69.0,68.0,30.03,WNW,284,8.0,15.0,95,0.34,,,0.41,,2013-06-17 07:02:00,
2013-06-17 02:12:00,69.0,68.0,30.03,WNW,284,8.0,15.0,95,0.34,,,0.41,,2013-06-17 07:12:00,
2013-06-17 02:22:00,69.0,68.0,30.03,WNW,284,8.0,15.0,95,0.34,,,0.41,,2013-06-17 07:22:00,
2013-06-17 03:22:00,68.0,66.0,29.98,SSE,152,0.0,5.0,93,0.09,,,0.58,,2013-06-17 08:22:00,
2013-06-17 03:34:00,67.0,65.0,29.94,SSE,165,6.0,6.0,93,0.09,,,0.60,,2013-06-17 08:34:00,
2013-06-17 03:43:00,67.0,65.0,29.94,SSE,165,6.0,6.0,93,0.09,,,0.60,,2013-06-17 08:43:00,
2013-06-17 03:53:00,67.0,65.0,29.94,SSE,165,6.0,6.0,93,0.09,,,0.60,,2013-06-17 08:53:00,
2013-06-17 04:02:00,67.0,63.0,29.86,SE,139,12.0,16.0,88,0.07,,,0.63,,2013-06-17 09:02:00,
2013-06-17 04:11:00,67.0,63.0,29.86,SE,139,12.0,16.0,88,0.07,,,0.63,,2013-06-17 09:11:00,
2013-06-17 04:22:00,67.0,63.0,29.86,SE,139,12.0,16.0,88,0.07,,,0.63,,2013-06-17 09:22:00,
2013-06-17 04:34:00,70.0,67.0,29.83,NW,311,4.0,17.0,90,0.03,,,0.63,,2013-06-17 09:34:00,
2013-06-17 04:43:00,70.0,67.0,29.83,NW,311,4.0,17.0,90,0.03,,,0.63,,2013-06-17 09:43:00,
2013-06-17 04:53:00,71.0,67.0,29.91,NE,47,8.0,13.0,88,0.01,,,0.63,,2013-06-17 09:53:00,
2013-06-17 05:02:00,71.0,67.0,29.91,NE,47,8.0,13.0,88,0.01,,,0.63,,2013-06-17 10:02:00,
2013-06-17 05:12:00,71.0,67.0,29.91,NE,47,8.0,13.0,88,0.01,,,0.63,,2013-06-17 10:12:00,
2013-06-17 05:22:00,71.0,67.0,29.91,NE,47,8.0,13.0,88,0.01,,,0.63,,2013-06-17 10:22:00,
2013-06-17 05:33:00,71.0,68.0,29.98,WNW,298,0.0,5.0,90,0.00,,,0.63,,2013-06-17 10:33:00,
2013-06-17 05:43:00,71.0,68.0,29.98,WNW,298,0.0,5.0,90,0.00,,,0.63,,2013-06-17 10:43:00,
2013-06-17 05:54:00,70.0,68.0,29.99,NE,39,1.0,2.0,92,0.00,,,0.63,,2013-06-17 10:54:00,
2013-06-17 06:02:00,70.0,68.0,29.99,NE,39,1.0,2.0,92,0.00,,,0.63,,2013-06-17 11:02:00,
2013-06-17 06:12:00,70.0,68.0,29.99,NE,39,1.0,2.0,92,0.00,,,0.63,,2013-06-17 11:12:00,
2013-06-17 06:23:00,70.0,68.0,29.99,NE,39,1.0,2.0,92,0.00,,,0.63,,2013-06-17 11:23:00,
2013-06-17 06:33:00,70.0,68.0,29.98,NNW,330,0.0,0.0,93,0.00,,,0.63,,2013-06-17 11:33:00,
2013-06-17 06:43:00,70.0,68.0,29.98,NNW,330,0.0,0.0,93,0.00,,,0.63,,2013-06-17 11:43:00,
2013-06-17 06:53:00,70.0,68.0,29.98,NNW,330,0.0,0.0,93,0.00,,,0.63,,2013-06-17 11:53:00,
2013-06-17 07:02:00,70.0,68.0,29.98,NNW,330,0.0,0.0,93,0.00,,,0.63,,2013-06-17 12:02:00,
2013-06-17 07:11:00,70.0,68.0,29.98,NNW,330,0.0,0.0,93,0.00,,,0.63,,2013-06-17 12:11:00,
2013-06-17 07:22:00,70.0,68.0,29.98,NNW,330,0.0,0.0,93,0.00,,,0.63,,2013-06-17 12:22:00,
2013-06-17 07:33:00,70.0,68.0,29.98,NNW,330,0.0,0.0,93,0.00,,,0.63,,2013-06-17 12:33:00,
2013-06-17 07:43:00,70.0,68.0,29.98,NNW,330,0.0,0.0,93,0.00,,,0.63,,2013-06-17 12:43:00,
2013-06-17 07:53:00,70.0,68.0,30.01,NNW,330,0.0,0.0,93,0.00,,,0.63,,2013-06-17 12:53:00,
2013-06-17 08:01:00,70.0,68.0,30.01,NNW,330,0.0,0.0,93,0.00,,,0.63,,2013-06-17 13:01:00,
2013-06-17 08:12:00,70.0,68.0,30.01,NNW,330,0.0,0.0,93,0.00,,,0.63,,2013-06-17 13:12:00,
2013-06-17 08:22:00,70.0,68.0,30.01,NNW,330,0.0,0.0,93,0.00,,,0.63,,2013-06-17 13:22:00,
2013-06-17 08:32:00,72.0,70.0,30.03,ENE,61,0.0,4.0,95,0.00,,,0.63,,2013-06-17 13:32:00,
2013-06-17 08:43:00,72.0,70.0,30.03,ENE,61,0.0,4.0,95,0.00,,,0.63,,2013-06-17 13:43:00,
2013-06-17 08:53:00,72.0,70.0,30.03,ENE,61,0.0,4.0,95,0.00,,,0.63,,2013-06-17 13:53:00,
2013-06-17 09:02:00,72.0,70.0,30.03,ENE,61,0.0,4.0,95,0.00,,,0.63,,2013-06-17 14:02:00,
2013-06-17 09:12:00,72.0,70.0,30.03,ENE,61,0.0,4.0,95,0.00,,,0.63,,2013-06-17 14:12:00,
2013-06-17 09:34:00,74.0,71.0,30.05,East,98,3.0,8.0,90,0.00,,,0.63,,2013-06-17 14:34:00,
2013-06-17 09:44:00,74.0,71.0,30.05,East,98,3.0,8.0,90,0.00,,,0.63,,2013-06-17 14:44:00,
2013-06-17 09:53:00,74.0,71.0,30.04,NW,324,4.0,9.0,90,0.00,,,0.63,,2013-06-17 14:53:00,
2013-06-17 10:01:00,74.0,71.0,30.04,NW,324,4.0,9.0,90,0.00,,,0.63,,2013-06-17 15:01:00,
2013-06-17 10:12:00,74.0,71.0,30.04,NW,324,4.0,9.0,90,0.00,,,0.63,,2013-06-17 15:12:00,
2013-06-17 10:22:00,74.0,71.0,30.04,NW,324,4.0,9.0,90,0.00,,,0.63,,2013-06-17 15:22:00,
2013-06-17 10:33:00,76.0,70.0,30.05,ENE,60,3.0,6.0,83,0.00,,,0.63,,2013-06-17 15:33:00,
2013-06-17 10:43:00,76.0,70.0,30.05,ENE,60,3.0,6.0,83,0.00,,,0.63,,2013-06-17 15:43:00,
2013-06-17 10:52:00,76.0,70.0,30.05,ENE,60,3.0,6.0,83,0.00,,,0.63,,2013-06-17 15:52:00,
2013-06-17 11:02:00,76.0,70.0,30.05,NW,315,1.0,5.0,83,0.00,,,0.63,,2013-06-17 16:02:00,
2013-06-17 11:11:00,76.0,70.0,30.05,NW,315,1.0,5.0,83,0.00,,,0.63,,2013-06-17 16:11:00,
2013-06-17 11:22:00,76.0,70.0,30.05,NW,315,1.0,5.0,83,0.00,,,0.63,,2013-06-17 16:22:00,
2013-06-17 11:33:00,76.0,70.0,30.05,NW,315,1.0,5.0,83,0.00,,,0.63,,2013-06-17 16:33:00,
2013-06-17 11:43:00,76.0,70.0,30.05,NW,315,1.0,5.0,83,0.00,,,0.63,,2013-06-17 16:43:00,
2013-06-17 12:02:00,80.0,71.0,30.05,ENE,72,3.0,9.0,73,0.00,,,0.63,,2013-06-17 17:02:00,
2013-06-17 12:12:00,80.0,71.0,30.05,ENE,72,3.0,9.0,73,0.00,,,0.63,,2013-06-17 17:12:00,
2013-06-17 12:22:00,80.0,71.0,30.04,ENE,65,1.0,8.0,73,0.00,,,0.63,,2013-06-17 17:22:00,
2013-06-17 12:33:00,80.0,70.0,30.03,NNE,30,6.0,10.0,71,0.00,,,0.63,,2013-06-17 17:33:00,
2013-06-17 12:43:00,80.0,70.0,30.03,NNE,30,6.0,10.0,71,0.00,,,0.63,,2013-06-17 17:43:00,
2013-06-17 12:52:00,80.0,70.0,30.03,NNE,30,6.0,10.0,71,0.00,,,0.63,,2013-06-17 17:52:00,
2013-06-17 13:01:00,82.0,69.0,30.03,NNE,30,4.0,10.0,66,0.00,,,0.63,,2013-06-17 18:01:00,
2013-06-17 13:02:00,82.0,71.0,30.03,ESE,114,3.0,8.0,70,0.00,,,0.63,,2013-06-17 18:02:00,
2013-06-17 13:12:00,82.0,71.0,30.03,ESE,114,3.0,8.0,70,0.00,,,0.63,,2013-06-17 18:12:00,
2013-06-17 13:23:00,82.0,69.0,30.03,NNE,30,4.0,10.0,66,0.00,,,0.63,,2013-06-17 18:23:00,
2013-06-17 13:33:00,82.0,69.0,30.03,NNE,30,4.0,10.0,66,0.00,,,0.63,,2013-06-17 18:33:00,
2013-06-17 13:43:00,82.0,69.0,30.03,NNE,30,4.0,10.0,66,0.00,,,0.63,,2013-06-17 18:43:00,
2013-06-17 13:53:00,82.0,69.0,30.03,NNE,30,4.0,10.0,66,0.00,,,0.63,,2013-06-17 18:53:00,
2013-06-17 15:02:00,86.0,64.0,30.03,NE,46,2.0,10.0,48,0.00,,,0.63,,2013-06-17 20:02:00,
2013-06-17 15:11:00,86.0,64.0,30.03,NE,46,2.0,10.0,48,0.00,,,0.63,,2013-06-17 20:11:00,
2013-06-17 15:22:00,86.0,64.0,30.03,NE,46,2.0,10.0,48,0.00,,,0.63,,2013-06-17 20:22:00,
2013-06-17 15:34:00,87.0,63.0,30.02,NE,54,3.0,10.0,45,0.00,,,0.63,,2013-06-17 20:34:00,
2013-06-17 15:43:00,87.0,63.0,30.02,NE,54,3.0,10.0,45,0.00,,,0.63,,2013-06-17 20:43:00,
2013-06-17 15:52:00,88.0,65.0,30.02,East,94,2.0,9.0,46,0.00,,,0.63,,2013-06-17 20:52:00,
2013-06-17 16:01:00,88.0,63.0,30.01,ESE,112,3.0,10.0,44,0.00,,,0.63,,2013-06-17 21:01:00,
2013-06-17 16:12:00,88.0,63.0,30.01,ESE,112,3.0,10.0,44,0.00,,,0.63,,2013-06-17 21:12:00,
2013-06-17 16:22:00,88.0,63.0,30.02,ESE,114,4.0,12.0,43,0.00,,,0.63,,2013-06-17 21:22:00,
2013-06-17 16:33:00,88.0,63.0,30.02,East,83,6.0,8.0,43,0.00,,,0.63,,2013-06-17 21:33:00,
2013-06-17 16:43:00,88.0,63.0,30.02,East,83,6.0,8.0,43,0.00,,,0.63,,2013-06-17 21:43:00,
2013-06-17 16:52:00,88.0,63.0,30.01,ESE,115,2.0,7.0,43,0.00,,,0.63,,2013-06-17 21:52:00,
2013-06-17 17:01:00,88.0,61.0,30.01,NE,56,5.0,9.0,41,0.00,,,0.63,,2013-06-17 22:01:00,
2013-06-17 17:11:00,88.0,61.0,30.01,NE,56,5.0,9.0,41,0.00,,,0.63,,2013-06-17 22:11:00,
2013-06-17 17:22:00,87.0,63.0,30.01,NE,40,4.0,9.0,45,0.00,,,0.63,,2013-06-17 22:22:00,
2013-06-17 17:33:00,87.0,64.0,30.01,East,79,2.0,11.0,46,0.00,,,0.63,,2013-06-17 22:33:00,
2013-06-17 17:43:00,87.0,64.0,30.01,East,79,2.0,11.0,46,0.00,,,0.63,,2013-06-17 22:43:00,
2013-06-17 17:53:00,88.0,63.0,30.01,East,92,3.0,10.0,44,0.00,,,0.63,,2013-06-17 22:53:00,
2013-06-17 18:02:00,88.0,65.0,30.00,ENE,65,2.0,10.0,46,0.00,,,0.63,,2013-06-17 23:02:00,
2013-06-17 18:11:00,88.0,65.0,30.00,ENE,65,2.0,10.0,46,0.00,,,0.63,,2013-06-17 23:11:00,
2013-06-17 18:22:00,88.0,65.0,30.00,ESE,105,4.0,8.0,47,0.00,,,0.63,,2013-06-17 23:22:00,
2013-06-17 18:32:00,87.0,64.0,29.99,East,84,0.0,8.0,46,0.00,,,0.63,,2013-06-17 23:32:00,
2013-06-17 18:42:00,87.0,64.0,29.99,East,84,0.0,8.0,46,0.00,,,0.63,,2013-06-17 23:42:00,
2013-06-17 18:53:00,88.0,64.0,30.00,ENE,74,3.0,8.0,45,0.00,,,0.63,,2013-06-17 23:53:00,
2013-06-17 19:01:00,88.0,64.0,30.00,ENE,74,3.0,8.0,45,0.00,,,0.63,,2013-06-18 00:01:00,
2013-06-17 19:12:00,88.0,64.0,30.00,ENE,74,3.0,8.0,45,0.00,,,0.63,,2013-06-18 00:12:00,
2013-06-17 19:22:00,88.0,63.0,30.00,SSE,155,1.0,9.0,44,0.00,,,0.63,,2013-06-18 00:22:00,
2013-06-17 19:33:00,87.0,62.0,30.00,ENE,58,4.0,9.0,43,0.00,,,0.63,,2013-06-18 00:33:00,
2013-06-17 19:43:00,87.0,62.0,30.00,ENE,58,4.0,9.0,43,0.00,,,0.63,,2013-06-18 00:43:00,
2013-06-17 19:52:00,87.0,63.0,30.00,East,98,3.0,7.0,45,0.00,,,0.63,,2013-06-18 00:52:00,
2013-06-17 20:01:00,87.0,63.0,30.00,East,98,3.0,7.0,45,0.00,,,0.63,,2013-06-18 01:01:00,
2013-06-17 20:11:00,87.0,63.0,30.00,East,98,3.0,7.0,45,0.00,,,0.63,,2013-06-18 01:11:00,
2013-06-17 20:23:00,86.0,65.0,30.01,SE,125,1.0,4.0,49,0.00,,,0.63,,2013-06-18 01:23:00,
2013-06-17 20:34:00,85.0,64.0,30.01,East,101,2.0,5.0,49,0.00,,,0.63,,2013-06-18 01:34:00,
2013-06-17 20:44:00,85.0,64.0,30.01,East,101,2.0,5.0,49,0.00,,,0.63,,2013-06-18 01:44:00,
2013-06-17 20:53:00,84.0,64.0,30.01,ESE,110,0.0,4.0,51,0.00,,,0.63,,2013-06-18 01:53:00,
2013-06-17 21:02:00,83.0,63.0,30.01,ESE,116,0.0,4.0,51,0.00,,,0.63,,2013-06-18 02:02:00,
2013-06-17 21:11:00,83.0,63.0,30.01,ESE,116,0.0,4.0,51,0.00,,,0.63,,2013-06-18 02:11:00,
2013-06-17 21:22:00,83.0,63.0,30.01,ESE,116,0.0,4.0,51,0.00,,,0.63,,2013-06-18 02:22:00,
2013-06-17 21:34:00,82.0,64.0,30.02,SE,143,0.0,2.0,54,0.00,,,0.63,,2013-06-18 02:34:00,
2013-06-17 21:43:00,82.0,64.0,30.02,SE,143,0.0,2.0,54,0.00,,,0.63,,2013-06-18 02:43:00,
2013-06-17 21:53:00,82.0,64.0,30.02,SE,143,0.0,2.0,54,0.00,,,0.63,,2013-06-18 02:53:00,
2013-06-17 22:02:00,81.0,65.0,30.03,SSE,167,1.0,3.0,59,0.00,,,0.63,,2013-06-18 03:02:00,
2013-06-17 22:12:00,81.0,65.0,30.03,SSE,167,1.0,3.0,59,0.00,,,0.63,,2013-06-18 03:12:00,
2013-06-17 22:23:00,81.0,65.0,30.03,SSE,167,1.0,3.0,59,0.00,,,0.63,,2013-06-18 03:23:00,
2013-06-17 22:34:00,80.0,67.0,30.05,SE,128,1.0,5.0,64,0.00,,,0.63,,2013-06-18 03:34:00,
2013-06-17 22:43:00,80.0,67.0,30.05,SE,128,1.0,5.0,64,0.00,,,0.63,,2013-06-18 03:43:00,
2013-06-17 22:53:00,79.0,67.0,30.05,SSE,160,0.0,4.0,66,0.00,,,0.63,,2013-06-18 03:53:00,
2013-06-17 23:02:00,79.0,67.0,30.05,SSE,160,0.0,4.0,66,0.00,,,0.63,,2013-06-18 04:02:00,
2013-06-17 23:12:00,79.0,67.0,30.05,SSE,160,0.0,4.0,66,0.00,,,0.63,,2013-06-18 04:12:00,
2013-06-17 23:22:00,77.0,66.0,30.05,SE,145,0.0,1.0,69,0.00,,,0.63,,2013-06-18 04:22:00,
2013-06-17 23:34:00,77.0,66.0,30.05,SE,145,0.0,1.0,69,0.00,,,0.63,,2013-06-18 04:34:00,
2013-06-17 23:43:00,77.0,66.0,30.05,SE,145,0.0,1.0,69,0.00,,,0.63,,2013-06-18 04:43:00,
2013-06-17 23:54:00,76.0,66.0,30.05,SW,222,0.0,1.0,72,0.00,,,0.63,,2013-06-18 04:54:00,